Sierra Nevada Aquatic Research Lab (SNARL) Reserve, California Weather observations

Data are for 10 minute period ending at time listed.
 Day   Time   Solar   Ave.   Ave.  Ave.  Vector  Max.   Baro.   Total    
  of    of     Rad.   Air    Rel.  Wind   Wind   Wind  Press.  Precip.   
Year   Day            Temp.  Hum.  Speed  Dir.   Gust                    
2017   (PST)  Kw/m2    F      %     mph   deg.    mph    mb.     in.     
-------------------------------------------------------------------------
  54    9:10   0.50   18.6    44    3.0    45     6.6   778.7    0.00 
  54    9:20   0.53   17.1    49    6.2    37     9.0   778.7    0.00 
  54    9:30   0.56   18.0    48    3.5    59     8.3   778.8    0.00 
  54    9:40   0.58   17.4    53    4.9   238     6.9   778.9    0.00 
  54    9:50   0.61   19.8    44    1.9   226     3.9   779.0    0.00 
  54   10:00   0.64   21.4    42    1.7   220     2.9   779.1    0.00 
  54   10:10   0.66   23.1    36    2.5   178     4.5   779.1    0.00 
  54   10:20   0.68   23.2    31    3.0   219     7.7   779.1    0.00 
  54   10:30   0.70   24.7    28    6.3   297    10.5   779.0    0.00 
  54   10:40   0.72   24.3    26    8.0   287    12.1   779.0    0.00 
  54   10:50   0.73   24.4    27    7.8   283    13.5   779.0    0.00 
  54   11:00   0.75   25.1    25    6.9   270    10.4   779.0    0.00 
  54   11:10   0.76   25.3    25    6.5   280    10.2   779.0    0.00 
  54   11:20   0.77   26.4    26    5.3   294     9.6   779.0    0.00 
  54   11:30   0.78   25.9    28    6.6   289    11.5   778.9    0.00 
  54   11:40   0.79   25.4    27    8.2   293    13.7   778.9    0.00 
  54   11:50   0.79   24.9    27    9.2   286    13.2   778.9    0.00 
  54   12:00   0.79   25.2    32    7.5   291    12.4   778.8    0.00 
  54   12:10   0.79   25.3    34    9.4   296    15.7   778.6    0.00 
  54   12:20   0.79   25.7    30    8.9   291    16.4   778.5    0.00 
  54   12:30   0.79   25.4    28    8.1   291    15.4   778.4    0.00 
  54   12:40   0.79   26.1    28    7.5   296    12.6   778.3    0.00 
  54   12:50   0.78   26.8    29    6.6   300    10.2   778.2    0.00 
  54   13:00   0.77   26.5    32    7.9   283    14.1   778.1    0.00 
  54   13:10   0.76   26.7    30    6.5   291    11.9   778.1    0.00 
  54   13:20   0.75   26.7    37   10.0   310    15.2   778.0    0.00 
  54   13:30   0.73   26.4    41    9.5   304    15.3   777.9    0.00 
  54   13:40   0.71   26.3    43    8.8   301    15.3   777.9    0.00 
  54   13:50   0.69   26.2    41    8.9   294    19.0   777.9    0.00 
  54   14:00   0.68   25.8    44    9.9   291    16.3   777.9    0.00 
  54   14:10   0.66   25.8    44   10.1   297    15.8   777.9    0.00 
  54   14:20   0.64   25.2    46   10.6   286    17.1   777.9    0.00 
  54   14:30   0.63   25.3    46    9.8   287    14.8   778.0    0.00 
  54   14:40   0.60   25.5    45   10.1   286    14.9   778.1    0.00 
  54   14:50   0.57   26.0    40    9.4   280    14.8   778.1    0.00 
  54   15:00   0.55   26.5    39    9.2   288    12.5   778.1    0.00 
  54   15:10   0.51   25.8    40   11.6   285    16.9   778.1    0.00 
  54   15:20   0.47   25.3    42   10.3   281    17.7   778.1    0.00 
  54   15:30   0.44   26.5    39    8.3   269    13.5   778.2    0.00 
  54   15:40   0.42   26.2    41    8.7   281    14.6   778.3    0.00 
  54   15:50   0.37   25.4    41    9.2   272    14.1   778.3    0.00 
  54   16:00   0.33   26.0    38    9.2   261    13.5   778.3    0.00 
  54   16:10   0.30   25.7    37    8.9   260    12.6   778.3    0.00 
  54   16:20   0.26   26.1    37    7.6   262    17.1   778.2    0.00 
  54   16:30   0.22   25.5    37    7.7   279    12.2   778.3    0.00 
  54   16:40   0.19   24.9    40    6.5   290    12.0   778.3    0.00 
  54   16:50   0.07   23.3    43    7.3   294    14.2   778.3    0.00 
  54   17:00   0.02   21.8    43    5.2   291    11.1   778.2    0.00 
  54   17:10   0.01   20.8    45    8.1   280    13.2   778.2    0.00 
  54   17:20   0.01   20.7    51    9.6   284    14.9   778.2    0.00 
  54   17:30   0.01   20.0    52    9.5   290    14.7   778.2    0.00 
  54   17:40   0.00   20.3    50   10.5   283    14.7   778.3    0.00 
  54   17:50   0.00   20.2    49    9.7   281    16.4   778.2    0.00 
  54   18:00   0.00   19.9    52    9.0   271    14.0   778.2    0.00 
  54   18:10   0.00   18.1    57   10.0   259    14.5   778.3    0.00 
  54   18:20   0.00   18.0    57    9.4   266    14.2   778.4    0.00 
  54   18:30   0.00   18.5    56    6.7   269     9.5   778.4    0.00 
  54   18:40   0.00   18.0    57    9.1   264    13.9   778.4    0.00 
  54   18:50   0.00   17.8    58    7.2   264    10.0   778.4    0.00 
  54   19:00   0.00   17.9    59    8.2   269    12.3   778.4    0.00 
  54   19:10   0.00   16.7    60    8.2   261    11.8   778.3    0.00 
  54   19:20   0.00   16.5    59    6.8   272    11.5   778.4    0.00 
  54   19:30   0.00   17.6    59    8.0   283    12.7   778.4    0.00 
  54   19:40   0.00   17.0    64    7.5   280    14.8   778.4    0.00 
  54   19:50   0.00   17.7    62    8.1   280    16.4   778.6    0.00 
  54   20:00   0.00   17.4    64    5.0   278     9.0   778.6    0.00 
  54   20:10   0.00   16.8    64    5.9   267    10.7   778.6    0.00 
  54   20:20   0.00   16.2    64    7.0   244    10.0   778.6    0.00 
  54   20:30   0.00   13.9    67    7.5   215    11.5   778.6    0.00 
  54   20:40   0.00   12.8    69    7.3   214     9.6   778.6    0.00 
  54   20:50   0.00   11.8    70    7.3   214     9.2   778.7    0.00 
  54   21:00   0.00   11.8    70    5.9   231     8.7   778.7    0.00 
  54   21:10   0.00   11.1    70    5.7   222     9.1   778.7    0.00 
  54   21:20   0.00   11.0    72    6.1   220     8.3   778.7    0.00 
  54   21:30   0.00   11.4    71    5.9   233    10.4   778.7    0.00 
  54   21:40   0.00   10.0    72    3.9   228     7.9   778.8    0.00 
  54   21:50   0.00    9.3    75    4.1   200     7.1   778.8    0.00 
  54   22:00   0.00   10.5    75    1.7   278     3.8   778.9    0.00 
  54   22:10   0.00   10.2    76    1.2   259     2.9   779.0    0.00 
  54   22:20   0.00    9.2    78    0.4   102     2.0   779.0    0.00 
  54   22:30   0.00    8.1    78    3.8   125     6.0   779.1    0.00 
  54   22:40   0.00    8.7    80    4.4   119     5.8   779.1    0.00 
  54   22:50   0.00    9.9    78    5.3   115    10.0   779.2    0.00 
  54   23:00   0.00   10.8    74    8.9   126    10.7   779.3    0.00 
  54   23:10   0.00   10.7    74    8.9   120    10.8   779.4    0.00 
  54   23:20   0.00   10.9    74    9.4   113    11.7   779.4    0.00 
  54   23:30   0.00   11.2    72    9.8   110    11.5   779.3    0.00 
  54   23:40   0.00   10.3    73    2.7    96     9.9   779.3    0.00 
  54   23:50   0.00    8.7    78    2.8   346     5.8   779.3    0.00 
  55    0:00   0.00    9.7    78    1.5   332     3.9   779.4    0.00 
  55    0:10   0.00    9.5    76    2.8    17     5.8   779.4    0.00 
  55    0:20   0.00    8.8    76    2.8    89     7.1   779.5    0.00 
  55    0:30   0.00    8.3    76    1.3   170     6.2   779.5    0.00 
  55    0:40   0.00    7.9    78    1.1   285     2.1   779.5    0.00 
  55    0:50   0.00    5.6    78    1.6   234     5.9   779.6    0.00 
  55    1:00   0.00    3.8    81    2.0   222     4.1   779.5    0.00 
  55    1:10   0.00    3.9    83    1.9   234     2.6   779.5    0.00 
  55    1:20   0.00    5.4    82    2.8   253     5.0   779.6    0.00 
  55    1:30   0.00    5.0    79    1.7   242     4.6   779.5    0.00 
  55    1:40   0.00    4.8    79    3.5   310     7.6   779.7    0.00 
  55    1:50   0.00    4.3    80    2.7   189     5.1   779.7    0.00 
  55    2:00   0.00    4.3    82    1.3   232     4.3   779.8    0.00 
  55    2:10   0.00    4.3    81    3.4   304     5.7   780.0    0.00 
  55    2:20   0.00    3.9    81    1.5   313     3.8   780.1    0.00 
  55    2:30   0.00    3.5    82    2.2   280     4.8   780.1    0.00 
  55    2:40   0.00    3.7    83    2.3   285     6.4   780.0    0.00 
  55    2:50   0.00    4.4    80    1.2   150     2.9   780.0    0.00 
  55    3:00   0.00    4.7    78    1.6   157     5.6   780.0    0.00 
  55    3:10   0.00    4.7    79    3.8   346     6.0   780.0    0.00 
  55    3:20   0.00    4.0    81    2.5   272     5.3   780.0    0.00 
  55    3:30   0.00    4.4    79    2.2   246     6.1   779.9    0.00 
  55    3:40   0.00    4.2    81    2.1   217     5.6   780.0    0.00 
  55    3:50   0.00    4.9    83    1.3   349     2.8   780.1    0.00 
  55    4:00   0.00    4.4    82    1.6   274     4.2   780.2    0.00 
  55    4:10   0.00    3.9    82    2.1   269     4.1   780.2    0.00 
  55    4:20   0.00    2.6    84    1.3   180     2.7   780.3    0.00 
  55    4:30   0.00    2.3    83    3.1   254     5.2   780.3    0.00 
  55    4:40   0.00    3.2    86    2.7   320     4.5   780.2    0.00 
  55    4:50   0.00    3.1    83    0.2    99     2.8   780.2    0.00 
  55    5:00   0.00    2.4    79    1.0   262     2.3   780.2    0.00 
  55    5:10   0.00    2.2    82    1.7   289     4.0   780.3    0.00 
  55    5:20   0.00    0.4    82    1.8   238     3.7   780.4    0.00 
  55    5:30   0.00    0.3    82    0.8   227     2.4   780.4    0.00 
  55    5:40   0.00    0.1    80    1.7   243     3.4   780.5    0.00 
  55    5:50   0.00   -0.0    78    2.4   242     3.4   780.6    0.00 
  55    6:00   0.00    0.8    80    1.3   292     4.0   780.7    0.00 
  55    6:10   0.00    0.1    82    1.6   245     4.0   780.8    0.00 
  55    6:20   0.00    1.2    73    3.8   208     6.9   780.7    0.00 
  55    6:30   0.00    1.8    71    4.8   186     7.7   780.7    0.00 
  55    6:40   0.00    2.5    70    1.8   130     4.2   780.7    0.00 
  55    6:50   0.01    4.2    70    3.2   319     6.6   780.7    0.00 
  55    7:00   0.06    3.8    69    2.0    11     4.7   780.7    0.00 
  55    7:10   0.09    6.9    62    0.4    57     2.2   780.7    0.00 
  55    7:20   0.12    7.0    60    0.7   113     2.7   780.7    0.00 
  55    7:30   0.16    9.5    55    0.8   104     2.0   780.8    0.00 
  55    7:40   0.19    8.2    57    0.9   248     3.1   780.8    0.00 
  55    7:50   0.22    6.6    58    1.9   192     2.9   780.7    0.00 
  55    8:00   0.26    8.2    58    1.2   226     2.8   780.8    0.00 
  55    8:10   0.29    8.9    55    2.3   233     3.1   780.9    0.00 
  55    8:20   0.33   10.8    53    0.5   277     1.8   781.1    0.00 
  55    8:30   0.36   15.8    46    1.7   336     4.7   781.1    0.00 
  55    8:40   0.40   16.5    45    1.8   344     3.3   781.1    0.00 
  55    8:50   0.43   17.4    43    1.1    34     3.1   781.2    0.00 
  55    9:00   0.46   15.9    45    2.7   106     4.1   781.4    0.00 

Return to SNARL Reserve graphs page.


Western Regional Climate Center,wrcc@dri.edu